sensor_id;sensor_type;location;lat;lon;timestamp;P1;durP1;ratioP1;P2;durP2;ratioP2
75320;SDS011;68337;52.196;5.660;2023-12-14T00:02:00;20.00;;;13.68;;
75320;SDS011;68337;52.196;5.660;2023-12-14T00:04:26;19.33;;;13.05;;
75320;SDS011;68337;52.196;5.660;2023-12-14T00:06:51;21.85;;;14.02;;
75320;SDS011;68337;52.196;5.660;2023-12-14T00:09:17;18.90;;;13.10;;
75320;SDS011;68337;52.196;5.660;2023-12-14T00:11:43;22.27;;;14.80;;
75320;SDS011;68337;52.196;5.660;2023-12-14T00:14:08;20.77;;;13.35;;
75320;SDS011;68337;52.196;5.660;2023-12-14T00:16:34;20.90;;;13.40;;
75320;SDS011;68337;52.196;5.660;2023-12-14T00:19:00;19.63;;;13.40;;
75320;SDS011;68337;52.196;5.660;2023-12-14T00:21:26;20.10;;;14.20;;
75320;SDS011;68337;52.196;5.660;2023-12-14T00:23:51;20.58;;;14.20;;
75320;SDS011;68337;52.196;5.660;2023-12-14T00:26:17;21.33;;;14.52;;
75320;SDS011;68337;52.196;5.660;2023-12-14T00:28:43;18.08;;;12.73;;
75320;SDS011;68337;52.196;5.660;2023-12-14T00:31:08;23.73;;;14.93;;
75320;SDS011;68337;52.196;5.660;2023-12-14T00:33:34;24.83;;;15.10;;
75320;SDS011;68337;52.196;5.660;2023-12-14T00:36:00;19.08;;;13.77;;
75320;SDS011;68337;52.196;5.660;2023-12-14T00:38:26;17.92;;;13.18;;
75320;SDS011;68337;52.196;5.660;2023-12-14T00:40:51;20.65;;;13.45;;
75320;SDS011;68337;52.196;5.660;2023-12-14T00:43:17;17.73;;;12.75;;
75320;SDS011;68337;52.196;5.660;2023-12-14T00:45:43;19.23;;;14.30;;
75320;SDS011;68337;52.196;5.660;2023-12-14T00:48:08;17.13;;;12.07;;
75320;SDS011;68337;52.196;5.660;2023-12-14T00:50:34;18.27;;;12.70;;
75320;SDS011;68337;52.196;5.660;2023-12-14T00:53:00;16.77;;;12.65;;
75320;SDS011;68337;52.196;5.660;2023-12-14T00:55:25;17.60;;;13.00;;
75320;SDS011;68337;52.196;5.660;2023-12-14T00:57:51;19.73;;;12.90;;
75320;SDS011;68337;52.196;5.660;2023-12-14T01:00:17;17.50;;;12.27;;
75320;SDS011;68337;52.196;5.660;2023-12-14T01:02:43;18.60;;;12.73;;
75320;SDS011;68337;52.196;5.660;2023-12-14T01:05:09;18.50;;;12.68;;
75320;SDS011;68337;52.196;5.660;2023-12-14T01:07:35;21.25;;;12.95;;
75320;SDS011;68337;52.196;5.660;2023-12-14T01:10:01;18.05;;;12.35;;
75320;SDS011;68337;52.196;5.660;2023-12-14T01:12:27;17.30;;;12.38;;
75320;SDS011;68337;52.196;5.660;2023-12-14T01:14:53;18.42;;;12.32;;
75320;SDS011;68337;52.196;5.660;2023-12-14T01:17:19;18.05;;;12.13;;
75320;SDS011;68337;52.196;5.660;2023-12-14T01:19:45;16.80;;;11.73;;
75320;SDS011;68337;52.196;5.660;2023-12-14T01:22:10;16.38;;;11.77;;
75320;SDS011;68337;52.196;5.660;2023-12-14T01:24:36;15.93;;;11.75;;
75320;SDS011;68337;52.196;5.660;2023-12-14T01:27:02;13.80;;;10.60;;
75320;SDS011;68337;52.196;5.660;2023-12-14T01:29:29;14.45;;;11.10;;
75320;SDS011;68337;52.196;5.660;2023-12-14T01:31:55;15.75;;;12.10;;
75320;SDS011;68337;52.196;5.660;2023-12-14T01:34:21;16.10;;;12.48;;
75320;SDS011;68337;52.196;5.660;2023-12-14T01:36:46;19.75;;;13.43;;
75320;SDS011;68337;52.196;5.660;2023-12-14T01:39:12;17.70;;;12.93;;
75320;SDS011;68337;52.196;5.660;2023-12-14T01:41:37;16.42;;;11.52;;
75320;SDS011;68337;52.196;5.660;2023-12-14T01:44:05;15.50;;;11.80;;
75320;SDS011;68337;52.196;5.660;2023-12-14T01:46:31;16.08;;;12.05;;
75320;SDS011;68337;52.196;5.660;2023-12-14T01:48:57;17.25;;;13.13;;
75320;SDS011;68337;52.196;5.660;2023-12-14T01:51:22;16.05;;;12.35;;
75320;SDS011;68337;52.196;5.660;2023-12-14T01:53:48;16.38;;;11.95;;
75320;SDS011;68337;52.196;5.660;2023-12-14T01:56:14;16.65;;;12.48;;
75320;SDS011;68337;52.196;5.660;2023-12-14T01:58:39;17.00;;;12.27;;
75320;SDS011;68337;52.196;5.660;2023-12-14T02:01:11;15.63;;;12.45;;
75320;SDS011;68337;52.196;5.660;2023-12-14T02:04:16;15.98;;;12.80;;
75320;SDS011;68337;52.196;5.660;2023-12-14T02:06:44;16.40;;;12.13;;
75320;SDS011;68337;52.196;5.660;2023-12-14T02:09:10;18.33;;;12.15;;
75320;SDS011;68337;52.196;5.660;2023-12-14T02:11:38;18.60;;;13.68;;
75320;SDS011;68337;52.196;5.660;2023-12-14T02:14:05;19.25;;;13.13;;
75320;SDS011;68337;52.196;5.660;2023-12-14T02:16:31;18.38;;;13.93;;
75320;SDS011;68337;52.196;5.660;2023-12-14T02:18:57;18.17;;;13.45;;
75320;SDS011;68337;52.196;5.660;2023-12-14T02:21:23;19.75;;;13.00;;
75320;SDS011;68337;52.196;5.660;2023-12-14T02:23:48;19.17;;;12.90;;
75320;SDS011;68337;52.196;5.660;2023-12-14T02:26:14;18.08;;;12.77;;
75320;SDS011;68337;52.196;5.660;2023-12-14T02:28:43;18.85;;;13.23;;
75320;SDS011;68337;52.196;5.660;2023-12-14T02:31:08;18.88;;;13.40;;
75320;SDS011;68337;52.196;5.660;2023-12-14T02:33:34;18.30;;;13.45;;
75320;SDS011;68337;52.196;5.660;2023-12-14T02:36:02;18.67;;;13.13;;
75320;SDS011;68337;52.196;5.660;2023-12-14T02:38:31;16.90;;;12.63;;
75320;SDS011;68337;52.196;5.660;2023-12-14T02:40:57;15.05;;;11.95;;
75320;SDS011;68337;52.196;5.660;2023-12-14T02:43:22;16.02;;;12.80;;
75320;SDS011;68337;52.196;5.660;2023-12-14T02:45:51;17.13;;;13.45;;
75320;SDS011;68337;52.196;5.660;2023-12-14T02:48:17;16.90;;;13.40;;
75320;SDS011;68337;52.196;5.660;2023-12-14T02:50:42;19.77;;;12.82;;
75320;SDS011;68337;52.196;5.660;2023-12-14T02:53:08;17.17;;;12.95;;
75320;SDS011;68337;52.196;5.660;2023-12-14T02:55:34;18.73;;;12.77;;
75320;SDS011;68337;52.196;5.660;2023-12-14T02:57:59;16.83;;;12.48;;
75320;SDS011;68337;52.196;5.660;2023-12-14T03:00:28;16.20;;;12.45;;
75320;SDS011;68337;52.196;5.660;2023-12-14T03:02:53;16.35;;;12.95;;
75320;SDS011;68337;52.196;5.660;2023-12-14T03:05:19;14.98;;;11.70;;
75320;SDS011;68337;52.196;5.660;2023-12-14T03:07:45;18.27;;;12.98;;
75320;SDS011;68337;52.196;5.660;2023-12-14T03:10:10;15.70;;;12.20;;
75320;SDS011;68337;52.196;5.660;2023-12-14T03:12:36;15.52;;;11.93;;
75320;SDS011;68337;52.196;5.660;2023-12-14T03:15:02;16.10;;;12.35;;
75320;SDS011;68337;52.196;5.660;2023-12-14T03:17:28;14.07;;;11.60;;
75320;SDS011;68337;52.196;5.660;2023-12-14T03:19:53;15.15;;;11.95;;
75320;SDS011;68337;52.196;5.660;2023-12-14T03:22:19;14.98;;;12.27;;
75320;SDS011;68337;52.196;5.660;2023-12-14T03:24:45;17.98;;;12.43;;
75320;SDS011;68337;52.196;5.660;2023-12-14T03:27:14;18.95;;;13.38;;
75320;SDS011;68337;52.196;5.660;2023-12-14T03:29:39;15.98;;;11.68;;
75320;SDS011;68337;52.196;5.660;2023-12-14T03:32:05;14.90;;;11.20;;
75320;SDS011;68337;52.196;5.660;2023-12-14T03:34:31;15.63;;;11.88;;
75320;SDS011;68337;52.196;5.660;2023-12-14T03:36:57;16.52;;;11.88;;
75320;SDS011;68337;52.196;5.660;2023-12-14T03:39:22;15.98;;;11.98;;
75320;SDS011;68337;52.196;5.660;2023-12-14T03:41:48;14.27;;;11.48;;
75320;SDS011;68337;52.196;5.660;2023-12-14T03:44:14;16.65;;;11.98;;
75320;SDS011;68337;52.196;5.660;2023-12-14T03:46:39;13.38;;;10.32;;
75320;SDS011;68337;52.196;5.660;2023-12-14T03:49:05;12.73;;;11.07;;
75320;SDS011;68337;52.196;5.660;2023-12-14T03:51:31;13.50;;;11.20;;
75320;SDS011;68337;52.196;5.660;2023-12-14T03:53:57;14.32;;;10.60;;
75320;SDS011;68337;52.196;5.660;2023-12-14T03:56:22;15.65;;;11.30;;
75320;SDS011;68337;52.196;5.660;2023-12-14T03:58:48;14.05;;;11.40;;
75320;SDS011;68337;52.196;5.660;2023-12-14T04:01:17;18.63;;;11.52;;
75320;SDS011;68337;52.196;5.660;2023-12-14T04:03:44;16.13;;;11.60;;
75320;SDS011;68337;52.196;5.660;2023-12-14T04:06:11;14.30;;;10.18;;
75320;SDS011;68337;52.196;5.660;2023-12-14T04:08:37;14.52;;;11.20;;
75320;SDS011;68337;52.196;5.660;2023-12-14T04:11:04;15.30;;;10.73;;
75320;SDS011;68337;52.196;5.660;2023-12-14T04:13:30;14.80;;;12.05;;
75320;SDS011;68337;52.196;5.660;2023-12-14T04:15:55;14.07;;;10.90;;
75320;SDS011;68337;52.196;5.660;2023-12-14T04:18:22;14.30;;;10.88;;
75320;SDS011;68337;52.196;5.660;2023-12-14T04:20:48;16.15;;;10.77;;
75320;SDS011;68337;52.196;5.660;2023-12-14T04:23:14;16.50;;;12.45;;
75320;SDS011;68337;52.196;5.660;2023-12-14T04:25:43;17.98;;;11.52;;
75320;SDS011;68337;52.196;5.660;2023-12-14T04:28:08;17.95;;;11.80;;
75320;SDS011;68337;52.196;5.660;2023-12-14T04:30:34;14.77;;;10.95;;
75320;SDS011;68337;52.196;5.660;2023-12-14T04:33:00;16.27;;;12.02;;
75320;SDS011;68337;52.196;5.660;2023-12-14T04:35:25;12.80;;;10.15;;
75320;SDS011;68337;52.196;5.660;2023-12-14T04:37:51;15.75;;;10.63;;
75320;SDS011;68337;52.196;5.660;2023-12-14T04:40:17;14.50;;;10.13;;
75320;SDS011;68337;52.196;5.660;2023-12-14T04:42:43;15.30;;;10.90;;
75320;SDS011;68337;52.196;5.660;2023-12-14T04:45:09;14.05;;;10.65;;
75320;SDS011;68337;52.196;5.660;2023-12-14T04:47:35;13.70;;;11.20;;
75320;SDS011;68337;52.196;5.660;2023-12-14T04:50:01;15.07;;;11.15;;
75320;SDS011;68337;52.196;5.660;2023-12-14T04:52:27;13.93;;;10.63;;
75320;SDS011;68337;52.196;5.660;2023-12-14T04:54:53;16.63;;;11.70;;
75320;SDS011;68337;52.196;5.660;2023-12-14T04:57:19;16.00;;;10.80;;
75320;SDS011;68337;52.196;5.660;2023-12-14T04:59:44;15.02;;;11.43;;
75320;SDS011;68337;52.196;5.660;2023-12-14T05:02:10;16.73;;;11.07;;
75320;SDS011;68337;52.196;5.660;2023-12-14T05:04:36;15.38;;;10.18;;
75320;SDS011;68337;52.196;5.660;2023-12-14T05:07:01;16.80;;;10.98;;
75320;SDS011;68337;52.196;5.660;2023-12-14T05:09:27;16.17;;;11.30;;
75320;SDS011;68337;52.196;5.660;2023-12-14T05:11:53;14.48;;;11.10;;
75320;SDS011;68337;52.196;5.660;2023-12-14T05:14:19;16.83;;;11.13;;
75320;SDS011;68337;52.196;5.660;2023-12-14T05:16:45;17.58;;;12.07;;
75320;SDS011;68337;52.196;5.660;2023-12-14T05:19:10;17.73;;;10.32;;
75320;SDS011;68337;52.196;5.660;2023-12-14T05:21:37;18.02;;;10.10;;
75320;SDS011;68337;52.196;5.660;2023-12-14T05:24:03;14.95;;;9.85;;
75320;SDS011;68337;52.196;5.660;2023-12-14T05:26:29;17.45;;;10.40;;
75320;SDS011;68337;52.196;5.660;2023-12-14T05:28:55;16.35;;;9.88;;
75320;SDS011;68337;52.196;5.660;2023-12-14T05:31:20;15.80;;;10.55;;
75320;SDS011;68337;52.196;5.660;2023-12-14T05:33:46;14.05;;;9.65;;
75320;SDS011;68337;52.196;5.660;2023-12-14T05:36:12;12.20;;;9.00;;
75320;SDS011;68337;52.196;5.660;2023-12-14T05:38:38;13.13;;;9.35;;
75320;SDS011;68337;52.196;5.660;2023-12-14T05:41:04;10.68;;;8.43;;
75320;SDS011;68337;52.196;5.660;2023-12-14T05:43:30;11.32;;;8.45;;
75320;SDS011;68337;52.196;5.660;2023-12-14T05:45:56;14.90;;;9.32;;
75320;SDS011;68337;52.196;5.660;2023-12-14T05:48:22;14.07;;;9.88;;
75320;SDS011;68337;52.196;5.660;2023-12-14T05:50:48;10.63;;;8.15;;
75320;SDS011;68337;52.196;5.660;2023-12-14T05:53:17;11.93;;;8.73;;
75320;SDS011;68337;52.196;5.660;2023-12-14T05:55:42;13.40;;;9.45;;
75320;SDS011;68337;52.196;5.660;2023-12-14T05:58:08;10.77;;;8.13;;
75320;SDS011;68337;52.196;5.660;2023-12-14T06:00:34;12.05;;;8.52;;
75320;SDS011;68337;52.196;5.660;2023-12-14T06:03:01;9.77;;;7.90;;
75320;SDS011;68337;52.196;5.660;2023-12-14T06:05:27;9.07;;;7.70;;
75320;SDS011;68337;52.196;5.660;2023-12-14T06:07:53;11.02;;;7.43;;
75320;SDS011;68337;52.196;5.660;2023-12-14T06:10:18;9.52;;;7.93;;
75320;SDS011;68337;52.196;5.660;2023-12-14T06:12:44;9.55;;;7.60;;
75320;SDS011;68337;52.196;5.660;2023-12-14T06:15:10;11.45;;;8.55;;
75320;SDS011;68337;52.196;5.660;2023-12-14T06:17:36;10.20;;;7.90;;
75320;SDS011;68337;52.196;5.660;2023-12-14T06:20:05;11.50;;;8.57;;
75320;SDS011;68337;52.196;5.660;2023-12-14T06:22:38;12.20;;;8.13;;
75320;SDS011;68337;52.196;5.660;2023-12-14T06:25:04;13.75;;;7.85;;
75320;SDS011;68337;52.196;5.660;2023-12-14T06:27:30;10.73;;;8.55;;
75320;SDS011;68337;52.196;5.660;2023-12-14T06:29:56;9.38;;;7.97;;
75320;SDS011;68337;52.196;5.660;2023-12-14T06:32:22;10.98;;;8.95;;
75320;SDS011;68337;52.196;5.660;2023-12-14T06:34:48;14.38;;;8.68;;
75320;SDS011;68337;52.196;5.660;2023-12-14T06:37:15;11.48;;;8.63;;
75320;SDS011;68337;52.196;5.660;2023-12-14T06:39:41;13.20;;;9.05;;
75320;SDS011;68337;52.196;5.660;2023-12-14T06:42:07;10.88;;;9.18;;
75320;SDS011;68337;52.196;5.660;2023-12-14T06:44:32;10.50;;;8.45;;
75320;SDS011;68337;52.196;5.660;2023-12-14T06:46:58;11.20;;;8.32;;
75320;SDS011;68337;52.196;5.660;2023-12-14T06:49:24;11.23;;;8.88;;
75320;SDS011;68337;52.196;5.660;2023-12-14T06:51:51;10.60;;;8.32;;
75320;SDS011;68337;52.196;5.660;2023-12-14T06:54:19;10.57;;;8.35;;
75320;SDS011;68337;52.196;5.660;2023-12-14T06:56:51;8.68;;;7.68;;
75320;SDS011;68337;52.196;5.660;2023-12-14T06:59:16;9.05;;;7.68;;
75320;SDS011;68337;52.196;5.660;2023-12-14T07:01:42;8.52;;;7.32;;
75320;SDS011;68337;52.196;5.660;2023-12-14T07:04:08;9.10;;;7.32;;
75320;SDS011;68337;52.196;5.660;2023-12-14T07:06:33;12.27;;;8.38;;
75320;SDS011;68337;52.196;5.660;2023-12-14T07:09:00;9.38;;;7.95;;
75320;SDS011;68337;52.196;5.660;2023-12-14T07:11:25;9.32;;;7.47;;
75320;SDS011;68337;52.196;5.660;2023-12-14T07:13:51;9.38;;;7.82;;
75320;SDS011;68337;52.196;5.660;2023-12-14T07:16:17;10.55;;;7.65;;
75320;SDS011;68337;52.196;5.660;2023-12-14T07:18:42;10.85;;;8.40;;
75320;SDS011;68337;52.196;5.660;2023-12-14T07:21:09;9.90;;;8.13;;
75320;SDS011;68337;52.196;5.660;2023-12-14T07:23:35;12.70;;;8.55;;
75320;SDS011;68337;52.196;5.660;2023-12-14T07:26:02;10.70;;;7.70;;
75320;SDS011;68337;52.196;5.660;2023-12-14T07:28:28;8.65;;;7.45;;
75320;SDS011;68337;52.196;5.660;2023-12-14T07:30:54;9.88;;;7.45;;
75320;SDS011;68337;52.196;5.660;2023-12-14T07:33:20;10.95;;;8.07;;
75320;SDS011;68337;52.196;5.660;2023-12-14T07:35:46;9.20;;;7.30;;
75320;SDS011;68337;52.196;5.660;2023-12-14T07:38:11;9.75;;;7.82;;
75320;SDS011;68337;52.196;5.660;2023-12-14T07:40:38;10.02;;;7.40;;
75320;SDS011;68337;52.196;5.660;2023-12-14T07:43:07;8.95;;;7.70;;
75320;SDS011;68337;52.196;5.660;2023-12-14T07:45:33;9.90;;;7.10;;
75320;SDS011;68337;52.196;5.660;2023-12-14T07:47:59;8.75;;;7.22;;
75320;SDS011;68337;52.196;5.660;2023-12-14T07:50:29;12.13;;;8.48;;
75320;SDS011;68337;52.196;5.660;2023-12-14T07:52:54;9.95;;;7.55;;
75320;SDS011;68337;52.196;5.660;2023-12-14T07:55:20;8.07;;;6.93;;
75320;SDS011;68337;52.196;5.660;2023-12-14T07:57:46;9.63;;;7.65;;
75320;SDS011;68337;52.196;5.660;2023-12-14T08:00:12;8.85;;;7.55;;
75320;SDS011;68337;52.196;5.660;2023-12-14T08:02:38;9.05;;;7.85;;
75320;SDS011;68337;52.196;5.660;2023-12-14T08:05:04;10.95;;;8.52;;
75320;SDS011;68337;52.196;5.660;2023-12-14T08:07:33;9.05;;;7.55;;
75320;SDS011;68337;52.196;5.660;2023-12-14T08:09:59;9.20;;;7.95;;
75320;SDS011;68337;52.196;5.660;2023-12-14T08:12:24;10.45;;;8.00;;
75320;SDS011;68337;52.196;5.660;2023-12-14T08:14:51;10.25;;;8.02;;
75320;SDS011;68337;52.196;5.660;2023-12-14T08:17:17;10.30;;;8.18;;
75320;SDS011;68337;52.196;5.660;2023-12-14T08:19:43;11.77;;;7.55;;
75320;SDS011;68337;52.196;5.660;2023-12-14T08:22:09;9.40;;;7.32;;
75320;SDS011;68337;52.196;5.660;2023-12-14T08:24:37;8.88;;;7.25;;
75320;SDS011;68337;52.196;5.660;2023-12-14T08:27:03;11.55;;;7.88;;
75320;SDS011;68337;52.196;5.660;2023-12-14T08:29:29;8.55;;;7.50;;
75320;SDS011;68337;52.196;5.660;2023-12-14T08:31:55;8.13;;;7.10;;
75320;SDS011;68337;52.196;5.660;2023-12-14T08:34:24;9.43;;;8.18;;
75320;SDS011;68337;52.196;5.660;2023-12-14T08:36:50;10.23;;;7.78;;
75320;SDS011;68337;52.196;5.660;2023-12-14T08:39:16;9.20;;;6.95;;
75320;SDS011;68337;52.196;5.660;2023-12-14T08:41:42;9.10;;;7.82;;
75320;SDS011;68337;52.196;5.660;2023-12-14T08:44:10;10.68;;;7.63;;
75320;SDS011;68337;52.196;5.660;2023-12-14T08:46:39;9.98;;;7.75;;
75320;SDS011;68337;52.196;5.660;2023-12-14T08:49:10;8.48;;;7.28;;
75320;SDS011;68337;52.196;5.660;2023-12-14T08:51:37;8.65;;;6.90;;
75320;SDS011;68337;52.196;5.660;2023-12-14T08:54:03;11.57;;;8.63;;
75320;SDS011;68337;52.196;5.660;2023-12-14T08:56:29;10.35;;;7.10;;
75320;SDS011;68337;52.196;5.660;2023-12-14T08:58:55;10.10;;;7.47;;
75320;SDS011;68337;52.196;5.660;2023-12-14T09:01:22;10.98;;;8.27;;
75320;SDS011;68337;52.196;5.660;2023-12-14T09:03:48;8.38;;;7.47;;
75320;SDS011;68337;52.196;5.660;2023-12-14T09:06:15;12.77;;;8.40;;
75320;SDS011;68337;52.196;5.660;2023-12-14T09:08:42;10.27;;;7.57;;
75320;SDS011;68337;52.196;5.660;2023-12-14T09:11:09;9.15;;;7.70;;
75320;SDS011;68337;52.196;5.660;2023-12-14T09:13:34;11.57;;;7.82;;
75320;SDS011;68337;52.196;5.660;2023-12-14T09:16:00;8.95;;;7.80;;
75320;SDS011;68337;52.196;5.660;2023-12-14T09:18:26;10.00;;;7.72;;
75320;SDS011;68337;52.196;5.660;2023-12-14T09:20:52;10.63;;;7.97;;
75320;SDS011;68337;52.196;5.660;2023-12-14T09:23:18;10.82;;;8.43;;
75320;SDS011;68337;52.196;5.660;2023-12-14T09:25:47;9.55;;;8.40;;
75320;SDS011;68337;52.196;5.660;2023-12-14T09:28:12;10.75;;;8.15;;
75320;SDS011;68337;52.196;5.660;2023-12-14T09:30:38;11.60;;;7.82;;
75320;SDS011;68337;52.196;5.660;2023-12-14T09:33:04;10.02;;;7.68;;
75320;SDS011;68337;52.196;5.660;2023-12-14T09:35:31;10.80;;;8.13;;
75320;SDS011;68337;52.196;5.660;2023-12-14T09:37:56;10.82;;;8.63;;
75320;SDS011;68337;52.196;5.660;2023-12-14T09:40:22;11.48;;;8.68;;
75320;SDS011;68337;52.196;5.660;2023-12-14T09:42:48;11.98;;;8.43;;
75320;SDS011;68337;52.196;5.660;2023-12-14T09:45:17;11.30;;;7.75;;
75320;SDS011;68337;52.196;5.660;2023-12-14T09:47:48;9.27;;;7.57;;
75320;SDS011;68337;52.196;5.660;2023-12-14T09:50:14;11.85;;;8.52;;
75320;SDS011;68337;52.196;5.660;2023-12-14T09:52:41;10.52;;;8.10;;
75320;SDS011;68337;52.196;5.660;2023-12-14T09:55:10;10.50;;;7.65;;
75320;SDS011;68337;52.196;5.660;2023-12-14T09:57:37;10.40;;;7.72;;
75320;SDS011;68337;52.196;5.660;2023-12-14T10:00:02;11.02;;;7.75;;
75320;SDS011;68337;52.196;5.660;2023-12-14T10:02:31;10.80;;;7.72;;
75320;SDS011;68337;52.196;5.660;2023-12-14T10:04:57;9.35;;;7.55;;
75320;SDS011;68337;52.196;5.660;2023-12-14T10:07:23;9.63;;;7.13;;
75320;SDS011;68337;52.196;5.660;2023-12-14T10:09:49;10.27;;;7.97;;
75320;SDS011;68337;52.196;5.660;2023-12-14T10:12:15;10.43;;;7.57;;
75320;SDS011;68337;52.196;5.660;2023-12-14T10:14:41;10.15;;;7.82;;
75320;SDS011;68337;52.196;5.660;2023-12-14T10:19:43;10.52;;;7.35;;
75320;SDS011;68337;52.196;5.660;2023-12-14T10:22:09;9.40;;;7.45;;
75320;SDS011;68337;52.196;5.660;2023-12-14T10:24:36;9.50;;;7.00;;
75320;SDS011;68337;52.196;5.660;2023-12-14T10:27:05;9.35;;;6.82;;
75320;SDS011;68337;52.196;5.660;2023-12-14T10:29:36;8.82;;;7.53;;
75320;SDS011;68337;52.196;5.660;2023-12-14T10:32:04;10.68;;;7.13;;
75320;SDS011;68337;52.196;5.660;2023-12-14T10:34:32;10.57;;;7.38;;
75320;SDS011;68337;52.196;5.660;2023-12-14T10:36:59;10.40;;;6.93;;
75320;SDS011;68337;52.196;5.660;2023-12-14T10:39:26;11.32;;;7.97;;
75320;SDS011;68337;52.196;5.660;2023-12-14T10:41:53;10.55;;;7.72;;
75320;SDS011;68337;52.196;5.660;2023-12-14T10:44:22;14.60;;;8.85;;
75320;SDS011;68337;52.196;5.660;2023-12-14T10:46:55;9.35;;;7.70;;
75320;SDS011;68337;52.196;5.660;2023-12-14T10:49:23;11.18;;;7.63;;
75320;SDS011;68337;52.196;5.660;2023-12-14T10:51:51;8.93;;;6.97;;
75320;SDS011;68337;52.196;5.660;2023-12-14T10:54:20;7.65;;;6.60;;
75320;SDS011;68337;52.196;5.660;2023-12-14T10:56:48;7.63;;;6.82;;
75320;SDS011;68337;52.196;5.660;2023-12-14T10:59:15;8.65;;;6.97;;
75320;SDS011;68337;52.196;5.660;2023-12-14T11:01:42;9.45;;;7.05;;
75320;SDS011;68337;52.196;5.660;2023-12-14T11:04:08;13.30;;;8.75;;
75320;SDS011;68337;52.196;5.660;2023-12-14T11:06:39;10.02;;;7.82;;
75320;SDS011;68337;52.196;5.660;2023-12-14T11:09:07;10.90;;;6.90;;
75320;SDS011;68337;52.196;5.660;2023-12-14T11:11:42;10.02;;;6.80;;
75320;SDS011;68337;52.196;5.660;2023-12-14T11:14:22;12.05;;;7.03;;
75320;SDS011;68337;52.196;5.660;2023-12-14T11:16:50;8.63;;;7.07;;
75320;SDS011;68337;52.196;5.660;2023-12-14T11:24:23;7.13;;;6.18;;
75320;SDS011;68337;52.196;5.660;2023-12-14T11:26:52;11.15;;;6.93;;
75320;SDS011;68337;52.196;5.660;2023-12-14T11:29:19;8.52;;;6.72;;
75320;SDS011;68337;52.196;5.660;2023-12-14T11:31:45;7.85;;;6.60;;
75320;SDS011;68337;52.196;5.660;2023-12-14T11:34:11;9.05;;;6.63;;
75320;SDS011;68337;52.196;5.660;2023-12-14T11:36:39;10.20;;;7.00;;
75320;SDS011;68337;52.196;5.660;2023-12-14T11:39:09;9.02;;;6.47;;
75320;SDS011;68337;52.196;5.660;2023-12-14T11:41:36;9.32;;;7.15;;
75320;SDS011;68337;52.196;5.660;2023-12-14T11:44:03;9.82;;;6.97;;
75320;SDS011;68337;52.196;5.660;2023-12-14T11:46:30;11.70;;;7.60;;
75320;SDS011;68337;52.196;5.660;2023-12-14T11:48:57;9.68;;;7.90;;
75320;SDS011;68337;52.196;5.660;2023-12-14T11:51:23;9.45;;;7.90;;
75320;SDS011;68337;52.196;5.660;2023-12-14T11:53:50;10.73;;;7.72;;
75320;SDS011;68337;52.196;5.660;2023-12-14T11:56:17;7.68;;;6.75;;
75320;SDS011;68337;52.196;5.660;2023-12-14T11:58:44;10.55;;;8.32;;
75320;SDS011;68337;52.196;5.660;2023-12-14T12:03:46;8.85;;;7.90;;
75320;SDS011;68337;52.196;5.660;2023-12-14T12:06:21;8.75;;;7.85;;
75320;SDS011;68337;52.196;5.660;2023-12-14T12:08:48;11.15;;;8.48;;
75320;SDS011;68337;52.196;5.660;2023-12-14T12:11:18;12.13;;;8.48;;
75320;SDS011;68337;52.196;5.660;2023-12-14T12:13:49;10.50;;;8.07;;
75320;SDS011;68337;52.196;5.660;2023-12-14T12:16:25;9.57;;;7.68;;
75320;SDS011;68337;52.196;5.660;2023-12-14T12:18:51;10.98;;;7.35;;
75320;SDS011;68337;52.196;5.660;2023-12-14T12:21:16;9.45;;;8.27;;
75320;SDS011;68337;52.196;5.660;2023-12-14T12:23:42;8.98;;;7.45;;
75320;SDS011;68337;52.196;5.660;2023-12-14T12:26:08;9.00;;;8.10;;
75320;SDS011;68337;52.196;5.660;2023-12-14T12:28:34;8.48;;;7.63;;
75320;SDS011;68337;52.196;5.660;2023-12-14T12:31:00;10.43;;;8.13;;
75320;SDS011;68337;52.196;5.660;2023-12-14T12:33:26;10.07;;;8.13;;
75320;SDS011;68337;52.196;5.660;2023-12-14T12:35:52;9.77;;;7.97;;
75320;SDS011;68337;52.196;5.660;2023-12-14T12:38:18;8.40;;;7.13;;
75320;SDS011;68337;52.196;5.660;2023-12-14T12:40:46;8.60;;;7.63;;
75320;SDS011;68337;52.196;5.660;2023-12-14T12:43:12;10.60;;;7.95;;
75320;SDS011;68337;52.196;5.660;2023-12-14T12:45:39;9.50;;;7.65;;
75320;SDS011;68337;52.196;5.660;2023-12-14T12:48:05;12.05;;;8.05;;
75320;SDS011;68337;52.196;5.660;2023-12-14T12:50:32;8.85;;;7.55;;
75320;SDS011;68337;52.196;5.660;2023-12-14T12:52:58;9.43;;;7.55;;
75320;SDS011;68337;52.196;5.660;2023-12-14T12:55:24;11.48;;;7.28;;
75320;SDS011;68337;52.196;5.660;2023-12-14T12:57:50;10.50;;;7.38;;
75320;SDS011;68337;52.196;5.660;2023-12-14T13:00:16;9.35;;;8.05;;
75320;SDS011;68337;52.196;5.660;2023-12-14T13:02:42;13.70;;;8.63;;
75320;SDS011;68337;52.196;5.660;2023-12-14T13:05:09;10.38;;;8.48;;
75320;SDS011;68337;52.196;5.660;2023-12-14T13:07:35;12.27;;;8.05;;
75320;SDS011;68337;52.196;5.660;2023-12-14T13:10:02;8.98;;;8.02;;
75320;SDS011;68337;52.196;5.660;2023-12-14T13:12:29;9.65;;;8.65;;
75320;SDS011;68337;52.196;5.660;2023-12-14T13:14:55;10.98;;;8.52;;
75320;SDS011;68337;52.196;5.660;2023-12-14T13:17:21;9.82;;;7.53;;
75320;SDS011;68337;52.196;5.660;2023-12-14T13:19:47;11.57;;;7.15;;
75320;SDS011;68337;52.196;5.660;2023-12-14T13:22:12;8.20;;;7.40;;
75320;SDS011;68337;52.196;5.660;2023-12-14T13:24:38;9.60;;;7.47;;
75320;SDS011;68337;52.196;5.660;2023-12-14T13:27:04;9.07;;;7.53;;
75320;SDS011;68337;52.196;5.660;2023-12-14T13:29:30;9.45;;;7.93;;
75320;SDS011;68337;52.196;5.660;2023-12-14T13:31:57;12.30;;;8.43;;
75320;SDS011;68337;52.196;5.660;2023-12-14T13:34:24;12.20;;;8.77;;
75320;SDS011;68337;52.196;5.660;2023-12-14T13:36:51;13.10;;;8.13;;
75320;SDS011;68337;52.196;5.660;2023-12-14T13:39:17;10.73;;;7.97;;
75320;SDS011;68337;52.196;5.660;2023-12-14T13:41:45;10.02;;;8.35;;
75320;SDS011;68337;52.196;5.660;2023-12-14T13:44:11;9.60;;;8.13;;
75320;SDS011;68337;52.196;5.660;2023-12-14T13:46:37;8.90;;;7.65;;
75320;SDS011;68337;52.196;5.660;2023-12-14T13:49:03;15.55;;;10.75;;
75320;SDS011;68337;52.196;5.660;2023-12-14T13:51:28;15.13;;;10.23;;
75320;SDS011;68337;52.196;5.660;2023-12-14T13:53:54;13.43;;;9.75;;
75320;SDS011;68337;52.196;5.660;2023-12-14T13:56:20;10.57;;;8.82;;
75320;SDS011;68337;52.196;5.660;2023-12-14T13:58:48;13.38;;;8.43;;
75320;SDS011;68337;52.196;5.660;2023-12-14T14:01:14;11.57;;;8.32;;
75320;SDS011;68337;52.196;5.660;2023-12-14T14:03:40;9.98;;;8.13;;
75320;SDS011;68337;52.196;5.660;2023-12-14T14:06:07;11.13;;;8.38;;
75320;SDS011;68337;52.196;5.660;2023-12-14T14:08:33;12.40;;;8.93;;
75320;SDS011;68337;52.196;5.660;2023-12-14T14:11:00;10.15;;;7.95;;
75320;SDS011;68337;52.196;5.660;2023-12-14T14:13:26;11.65;;;9.63;;
75320;SDS011;68337;52.196;5.660;2023-12-14T14:15:56;11.65;;;9.13;;
75320;SDS011;68337;52.196;5.660;2023-12-14T14:18:21;14.95;;;9.38;;
75320;SDS011;68337;52.196;5.660;2023-12-14T14:20:47;13.48;;;9.23;;
75320;SDS011;68337;52.196;5.660;2023-12-14T14:23:13;11.70;;;8.93;;
75320;SDS011;68337;52.196;5.660;2023-12-14T14:25:41;11.32;;;9.50;;
75320;SDS011;68337;52.196;5.660;2023-12-14T14:28:07;13.10;;;8.55;;
75320;SDS011;68337;52.196;5.660;2023-12-14T14:30:33;12.93;;;9.73;;
75320;SDS011;68337;52.196;5.660;2023-12-14T14:32:58;11.95;;;8.70;;
75320;SDS011;68337;52.196;5.660;2023-12-14T14:35:24;12.85;;;9.15;;
75320;SDS011;68337;52.196;5.660;2023-12-14T14:37:50;13.57;;;9.88;;
75320;SDS011;68337;52.196;5.660;2023-12-14T14:40:15;10.75;;;9.00;;